sensor_id;sensor_type;location;lat;lon;timestamp;P1;durP1;ratioP1;P2;durP2;ratioP2
11197;SDS011;5655;48.744;9.162;2023-02-03T00:01:52;2.23;;;1.10;;
11197;SDS011;5655;48.744;9.162;2023-02-03T00:04:18;1.87;;;1.37;;
11197;SDS011;5655;48.744;9.162;2023-02-03T00:06:43;1.83;;;1.23;;
11197;SDS011;5655;48.744;9.162;2023-02-03T00:09:09;1.60;;;1.00;;
11197;SDS011;5655;48.744;9.162;2023-02-03T00:11:34;2.57;;;0.83;;
11197;SDS011;5655;48.744;9.162;2023-02-03T00:14:00;2.10;;;1.00;;
11197;SDS011;5655;48.744;9.162;2023-02-03T00:16:25;1.70;;;0.97;;
11197;SDS011;5655;48.744;9.162;2023-02-03T00:18:50;2.83;;;0.90;;
11197;SDS011;5655;48.744;9.162;2023-02-03T00:21:16;2.20;;;0.90;;
11197;SDS011;5655;48.744;9.162;2023-02-03T00:23:41;0.80;;;0.80;;
11197;SDS011;5655;48.744;9.162;2023-02-03T00:26:10;1.03;;;0.90;;
11197;SDS011;5655;48.744;9.162;2023-02-03T00:28:40;1.07;;;0.83;;
11197;SDS011;5655;48.744;9.162;2023-02-03T00:31:13;1.57;;;0.90;;
11197;SDS011;5655;48.744;9.162;2023-02-03T00:33:39;0.60;;;0.53;;
11197;SDS011;5655;48.744;9.162;2023-02-03T00:36:05;1.20;;;0.90;;
11197;SDS011;5655;48.744;9.162;2023-02-03T00:38:30;0.50;;;0.50;;
11197;SDS011;5655;48.744;9.162;2023-02-03T00:40:55;1.90;;;0.70;;
11197;SDS011;5655;48.744;9.162;2023-02-03T00:43:21;0.50;;;0.50;;
11197;SDS011;5655;48.744;9.162;2023-02-03T00:45:46;1.27;;;0.83;;
11197;SDS011;5655;48.744;9.162;2023-02-03T00:48:12;1.50;;;0.90;;
11197;SDS011;5655;48.744;9.162;2023-02-03T00:50:38;2.17;;;0.80;;
11197;SDS011;5655;48.744;9.162;2023-02-03T00:53:03;0.60;;;0.60;;
11197;SDS011;5655;48.744;9.162;2023-02-03T00:55:28;1.30;;;0.77;;
11197;SDS011;5655;48.744;9.162;2023-02-03T00:57:54;0.63;;;0.63;;
11197;SDS011;5655;48.744;9.162;2023-02-03T01:00:19;0.90;;;0.70;;
11197;SDS011;5655;48.744;9.162;2023-02-03T01:02:44;0.70;;;0.70;;
11197;SDS011;5655;48.744;9.162;2023-02-03T01:05:10;1.40;;;0.83;;
11197;SDS011;5655;48.744;9.162;2023-02-03T01:07:36;0.90;;;0.70;;
11197;SDS011;5655;48.744;9.162;2023-02-03T01:10:02;0.80;;;0.73;;
11197;SDS011;5655;48.744;9.162;2023-02-03T01:12:29;1.33;;;0.63;;
11197;SDS011;5655;48.744;9.162;2023-02-03T01:14:55;1.33;;;0.80;;
11197;SDS011;5655;48.744;9.162;2023-02-03T01:17:20;0.80;;;0.73;;
11197;SDS011;5655;48.744;9.162;2023-02-03T01:19:46;0.97;;;0.70;;
11197;SDS011;5655;48.744;9.162;2023-02-03T01:22:11;1.20;;;0.80;;
11197;SDS011;5655;48.744;9.162;2023-02-03T01:24:36;1.53;;;0.87;;
11197;SDS011;5655;48.744;9.162;2023-02-03T01:27:02;1.90;;;0.83;;
11197;SDS011;5655;48.744;9.162;2023-02-03T01:29:27;1.20;;;0.77;;
11197;SDS011;5655;48.744;9.162;2023-02-03T01:31:52;1.00;;;0.90;;
11197;SDS011;5655;48.744;9.162;2023-02-03T01:34:17;1.03;;;0.70;;
11197;SDS011;5655;48.744;9.162;2023-02-03T01:36:43;2.40;;;1.50;;
11197;SDS011;5655;48.744;9.162;2023-02-03T01:39:10;1.57;;;0.90;;
11197;SDS011;5655;48.744;9.162;2023-02-03T01:41:36;1.10;;;1.00;;
11197;SDS011;5655;48.744;9.162;2023-02-03T01:47:02;1.40;;;1.30;;
11197;SDS011;5655;48.744;9.162;2023-02-03T01:49:30;1.10;;;0.90;;
11197;SDS011;5655;48.744;9.162;2023-02-03T01:51:58;1.00;;;0.87;;
11197;SDS011;5655;48.744;9.162;2023-02-03T01:54:27;1.73;;;1.10;;
11197;SDS011;5655;48.744;9.162;2023-02-03T01:57:09;1.13;;;0.90;;
11197;SDS011;5655;48.744;9.162;2023-02-03T01:59:39;2.53;;;1.10;;
11197;SDS011;5655;48.744;9.162;2023-02-03T02:02:06;2.07;;;1.40;;
11197;SDS011;5655;48.744;9.162;2023-02-03T02:04:38;2.53;;;1.07;;
11197;SDS011;5655;48.744;9.162;2023-02-03T02:07:12;1.83;;;1.20;;
11197;SDS011;5655;48.744;9.162;2023-02-03T02:09:39;1.57;;;1.40;;
11197;SDS011;5655;48.744;9.162;2023-02-03T02:12:05;1.40;;;1.30;;
11197;SDS011;5655;48.744;9.162;2023-02-03T02:14:30;4.50;;;1.53;;
11197;SDS011;5655;48.744;9.162;2023-02-03T02:17:03;2.50;;;1.50;;
11197;SDS011;5655;48.744;9.162;2023-02-03T02:23:23;1.50;;;1.40;;
11197;SDS011;5655;48.744;9.162;2023-02-03T02:34:07;1.93;;;1.67;;
11197;SDS011;5655;48.744;9.162;2023-02-03T02:42:25;1.93;;;1.60;;
11197;SDS011;5655;48.744;9.162;2023-02-03T02:45:12;5.63;;;1.50;;
11197;SDS011;5655;48.744;9.162;2023-02-03T02:47:41;3.97;;;1.70;;
11197;SDS011;5655;48.744;9.162;2023-02-03T02:50:10;2.00;;;1.50;;
11197;SDS011;5655;48.744;9.162;2023-02-03T02:52:43;3.10;;;1.70;;
11197;SDS011;5655;48.744;9.162;2023-02-03T02:55:19;3.53;;;1.47;;
11197;SDS011;5655;48.744;9.162;2023-02-03T02:57:52;3.20;;;1.50;;
11197;SDS011;5655;48.744;9.162;2023-02-03T03:00:21;5.63;;;1.60;;
11197;SDS011;5655;48.744;9.162;2023-02-03T03:02:47;2.50;;;1.23;;
11197;SDS011;5655;48.744;9.162;2023-02-03T03:05:13;3.00;;;1.27;;
11197;SDS011;5655;48.744;9.162;2023-02-03T03:08:00;1.75;;;0.90;;
11197;SDS011;5655;48.744;9.162;2023-02-03T03:10:27;1.10;;;0.95;;
11197;SDS011;5655;48.744;9.162;2023-02-03T03:12:58;2.55;;;1.17;;
11197;SDS011;5655;48.744;9.162;2023-02-03T03:15:30;1.50;;;1.30;;
11197;SDS011;5655;48.744;9.162;2023-02-03T03:18:10;2.42;;;1.13;;
11197;SDS011;5655;48.744;9.162;2023-02-03T03:20:40;1.25;;;0.82;;
11197;SDS011;5655;48.744;9.162;2023-02-03T03:23:29;1.00;;;0.80;;
11197;SDS011;5655;48.744;9.162;2023-02-03T03:25:59;3.33;;;1.00;;
11197;SDS011;5655;48.744;9.162;2023-02-03T03:28:37;1.50;;;0.75;;
11197;SDS011;5655;48.744;9.162;2023-02-03T03:31:12;2.03;;;0.83;;
11197;SDS011;5655;48.744;9.162;2023-02-03T03:33:37;0.75;;;0.75;;
11197;SDS011;5655;48.744;9.162;2023-02-03T03:36:10;0.93;;;0.73;;
11197;SDS011;5655;48.744;9.162;2023-02-03T03:38:49;0.60;;;0.50;;
11197;SDS011;5655;48.744;9.162;2023-02-03T03:41:25;0.93;;;0.60;;
11197;SDS011;5655;48.744;9.162;2023-02-03T03:44:00;0.60;;;0.60;;
11197;SDS011;5655;48.744;9.162;2023-02-03T03:46:39;2.10;;;0.70;;
11197;SDS011;5655;48.744;9.162;2023-02-03T03:49:11;0.70;;;0.70;;
11197;SDS011;5655;48.744;9.162;2023-02-03T03:51:44;0.95;;;0.47;;
11197;SDS011;5655;48.744;9.162;2023-02-03T03:54:14;0.83;;;0.70;;
11197;SDS011;5655;48.744;9.162;2023-02-03T03:56:53;0.50;;;0.50;;
11197;SDS011;5655;48.744;9.162;2023-02-03T03:59:24;1.92;;;0.82;;
11197;SDS011;5655;48.744;9.162;2023-02-03T04:01:53;1.35;;;0.98;;
11197;SDS011;5655;48.744;9.162;2023-02-03T04:04:19;2.05;;;1.02;;
11197;SDS011;5655;48.744;9.162;2023-02-03T04:06:47;1.02;;;0.93;;
11197;SDS011;5655;48.744;9.162;2023-02-03T04:09:12;2.97;;;1.10;;
11197;SDS011;5655;48.744;9.162;2023-02-03T04:11:38;1.27;;;1.07;;
11197;SDS011;5655;48.744;9.162;2023-02-03T04:14:21;2.42;;;1.40;;
11197;SDS011;5655;48.744;9.162;2023-02-03T04:16:46;1.63;;;1.53;;
11197;SDS011;5655;48.744;9.162;2023-02-03T04:19:12;2.17;;;1.30;;
11197;SDS011;5655;48.744;9.162;2023-02-03T04:21:37;2.00;;;1.20;;
11197;SDS011;5655;48.744;9.162;2023-02-03T04:24:02;2.45;;;1.20;;
11197;SDS011;5655;48.744;9.162;2023-02-03T04:26:28;1.23;;;1.03;;
11197;SDS011;5655;48.744;9.162;2023-02-03T04:28:53;1.60;;;1.07;;
11197;SDS011;5655;48.744;9.162;2023-02-03T04:31:18;2.00;;;0.80;;
11197;SDS011;5655;48.744;9.162;2023-02-03T04:33:44;1.30;;;0.90;;
11197;SDS011;5655;48.744;9.162;2023-02-03T04:36:09;2.83;;;1.20;;
11197;SDS011;5655;48.744;9.162;2023-02-03T04:38:34;1.83;;;1.03;;
11197;SDS011;5655;48.744;9.162;2023-02-03T04:41:00;1.07;;;0.83;;
11197;SDS011;5655;48.744;9.162;2023-02-03T04:43:25;0.90;;;0.80;;
11197;SDS011;5655;48.744;9.162;2023-02-03T04:45:50;1.27;;;1.17;;
11197;SDS011;5655;48.744;9.162;2023-02-03T04:48:16;2.50;;;0.90;;
11197;SDS011;5655;48.744;9.162;2023-02-03T04:50:41;2.67;;;1.00;;
11197;SDS011;5655;48.744;9.162;2023-02-03T04:53:06;1.00;;;0.90;;
11197;SDS011;5655;48.744;9.162;2023-02-03T04:55:32;1.10;;;1.00;;
11197;SDS011;5655;48.744;9.162;2023-02-03T04:57:57;2.93;;;1.13;;
11197;SDS011;5655;48.744;9.162;2023-02-03T05:00:24;2.00;;;1.13;;
11197;SDS011;5655;48.744;9.162;2023-02-03T05:02:50;2.43;;;1.10;;
11197;SDS011;5655;48.744;9.162;2023-02-03T05:05:16;2.10;;;1.07;;
11197;SDS011;5655;48.744;9.162;2023-02-03T05:07:41;2.83;;;1.30;;
11197;SDS011;5655;48.744;9.162;2023-02-03T05:10:06;2.92;;;1.52;;
11197;SDS011;5655;48.744;9.162;2023-02-03T05:12:32;1.98;;;1.33;;
11197;SDS011;5655;48.744;9.162;2023-02-03T05:14:57;2.83;;;1.37;;
11197;SDS011;5655;48.744;9.162;2023-02-03T05:17:23;1.47;;;1.20;;
11197;SDS011;5655;48.744;9.162;2023-02-03T05:19:48;2.50;;;1.10;;
11197;SDS011;5655;48.744;9.162;2023-02-03T05:22:13;3.40;;;1.10;;
11197;SDS011;5655;48.744;9.162;2023-02-03T05:24:39;1.30;;;1.20;;
11197;SDS011;5655;48.744;9.162;2023-02-03T05:27:04;1.87;;;1.30;;
11197;SDS011;5655;48.744;9.162;2023-02-03T05:29:29;3.33;;;1.50;;
11197;SDS011;5655;48.744;9.162;2023-02-03T05:31:54;1.57;;;1.37;;
11197;SDS011;5655;48.744;9.162;2023-02-03T05:34:20;1.63;;;1.00;;
11197;SDS011;5655;48.744;9.162;2023-02-03T05:36:45;3.67;;;1.30;;
11197;SDS011;5655;48.744;9.162;2023-02-03T05:39:10;3.13;;;1.17;;
11197;SDS011;5655;48.744;9.162;2023-02-03T05:41:36;1.17;;;1.00;;
11197;SDS011;5655;48.744;9.162;2023-02-03T05:44:16;4.40;;;1.30;;
11197;SDS011;5655;48.744;9.162;2023-02-03T05:46:52;2.80;;;1.17;;
11197;SDS011;5655;48.744;9.162;2023-02-03T05:49:18;5.83;;;1.23;;
11197;SDS011;5655;48.744;9.162;2023-02-03T05:51:44;4.37;;;1.57;;
11197;SDS011;5655;48.744;9.162;2023-02-03T05:54:10;1.43;;;1.27;;
11197;SDS011;5655;48.744;9.162;2023-02-03T05:56:36;2.70;;;1.40;;
11197;SDS011;5655;48.744;9.162;2023-02-03T05:59:02;2.90;;;1.17;;
11197;SDS011;5655;48.744;9.162;2023-02-03T06:01:29;1.33;;;1.23;;
11197;SDS011;5655;48.744;9.162;2023-02-03T06:03:54;4.47;;;1.20;;
11197;SDS011;5655;48.744;9.162;2023-02-03T06:06:19;1.23;;;1.00;;
11197;SDS011;5655;48.744;9.162;2023-02-03T06:08:45;2.03;;;1.10;;
11197;SDS011;5655;48.744;9.162;2023-02-03T06:11:10;2.73;;;1.30;;
11197;SDS011;5655;48.744;9.162;2023-02-03T06:13:36;1.93;;;1.17;;
11197;SDS011;5655;48.744;9.162;2023-02-03T06:16:01;2.17;;;1.10;;
11197;SDS011;5655;48.744;9.162;2023-02-03T06:18:27;1.03;;;0.90;;
11197;SDS011;5655;48.744;9.162;2023-02-03T06:20:52;2.20;;;0.90;;
11197;SDS011;5655;48.744;9.162;2023-02-03T06:23:18;2.20;;;1.03;;
11197;SDS011;5655;48.744;9.162;2023-02-03T06:25:43;4.10;;;1.20;;
11197;SDS011;5655;48.744;9.162;2023-02-03T06:28:12;1.40;;;1.20;;
11197;SDS011;5655;48.744;9.162;2023-02-03T06:30:38;1.07;;;0.97;;
11197;SDS011;5655;48.744;9.162;2023-02-03T06:33:03;2.63;;;1.43;;
11197;SDS011;5655;48.744;9.162;2023-02-03T06:35:28;2.77;;;1.70;;
11197;SDS011;5655;48.744;9.162;2023-02-03T06:37:54;1.77;;;1.00;;
11197;SDS011;5655;48.744;9.162;2023-02-03T06:40:19;2.97;;;1.10;;
11197;SDS011;5655;48.744;9.162;2023-02-03T06:42:45;3.40;;;1.20;;
11197;SDS011;5655;48.744;9.162;2023-02-03T06:45:11;1.10;;;1.00;;
11197;SDS011;5655;48.744;9.162;2023-02-03T06:47:40;1.40;;;1.10;;
11197;SDS011;5655;48.744;9.162;2023-02-03T06:50:06;2.33;;;0.90;;
11197;SDS011;5655;48.744;9.162;2023-02-03T06:52:32;3.27;;;1.00;;
11197;SDS011;5655;48.744;9.162;2023-02-03T06:54:58;1.20;;;1.00;;
11197;SDS011;5655;48.744;9.162;2023-02-03T06:57:23;2.30;;;1.20;;
11197;SDS011;5655;48.744;9.162;2023-02-03T06:59:48;3.17;;;1.27;;
11197;SDS011;5655;48.744;9.162;2023-02-03T07:02:14;3.60;;;1.73;;
11197;SDS011;5655;48.744;9.162;2023-02-03T07:04:40;2.60;;;1.40;;
11197;SDS011;5655;48.744;9.162;2023-02-03T07:07:05;1.77;;;1.23;;
11197;SDS011;5655;48.744;9.162;2023-02-03T07:09:30;2.00;;;1.37;;
11197;SDS011;5655;48.744;9.162;2023-02-03T07:11:56;1.67;;;1.17;;
11197;SDS011;5655;48.744;9.162;2023-02-03T07:14:21;3.50;;;1.20;;
11197;SDS011;5655;48.744;9.162;2023-02-03T07:16:47;2.63;;;1.43;;
11197;SDS011;5655;48.744;9.162;2023-02-03T07:19:12;2.20;;;1.50;;
11197;SDS011;5655;48.744;9.162;2023-02-03T07:21:37;3.43;;;1.40;;
11197;SDS011;5655;48.744;9.162;2023-02-03T07:24:02;3.83;;;1.50;;
11197;SDS011;5655;48.744;9.162;2023-02-03T07:26:28;3.87;;;1.30;;
11197;SDS011;5655;48.744;9.162;2023-02-03T07:28:53;5.30;;;1.47;;
11197;SDS011;5655;48.744;9.162;2023-02-03T07:31:19;2.63;;;1.63;;
11197;SDS011;5655;48.744;9.162;2023-02-03T07:33:44;1.60;;;1.50;;
11197;SDS011;5655;48.744;9.162;2023-02-03T07:36:09;2.80;;;1.33;;
11197;SDS011;5655;48.744;9.162;2023-02-03T07:38:35;3.87;;;1.93;;
11197;SDS011;5655;48.744;9.162;2023-02-03T07:41:04;5.43;;;1.57;;
11197;SDS011;5655;48.744;9.162;2023-02-03T07:43:30;3.33;;;1.93;;
11197;SDS011;5655;48.744;9.162;2023-02-03T07:45:55;1.90;;;1.70;;
11197;SDS011;5655;48.744;9.162;2023-02-03T07:48:20;4.57;;;1.90;;
11197;SDS011;5655;48.744;9.162;2023-02-03T07:50:49;4.13;;;1.83;;
11197;SDS011;5655;48.744;9.162;2023-02-03T07:53:16;2.83;;;2.03;;
11197;SDS011;5655;48.744;9.162;2023-02-03T07:55:42;4.40;;;2.07;;
11197;SDS011;5655;48.744;9.162;2023-02-03T07:58:07;7.03;;;2.63;;
11197;SDS011;5655;48.744;9.162;2023-02-03T08:00:33;3.30;;;2.30;;
11197;SDS011;5655;48.744;9.162;2023-02-03T08:02:58;8.13;;;2.67;;
11197;SDS011;5655;48.744;9.162;2023-02-03T08:05:24;3.37;;;2.33;;
11197;SDS011;5655;48.744;9.162;2023-02-03T08:07:49;3.20;;;2.10;;
11197;SDS011;5655;48.744;9.162;2023-02-03T08:10:14;3.97;;;2.60;;
11197;SDS011;5655;48.744;9.162;2023-02-03T08:12:42;4.13;;;2.40;;
11197;SDS011;5655;48.744;9.162;2023-02-03T08:15:08;3.97;;;3.10;;
11197;SDS011;5655;48.744;9.162;2023-02-03T08:17:34;6.20;;;2.83;;
11197;SDS011;5655;48.744;9.162;2023-02-03T08:20:00;6.50;;;3.00;;
11197;SDS011;5655;48.744;9.162;2023-02-03T08:22:25;5.60;;;3.33;;
11197;SDS011;5655;48.744;9.162;2023-02-03T08:24:51;6.47;;;3.57;;
11197;SDS011;5655;48.744;9.162;2023-02-03T08:27:17;6.00;;;3.13;;
11197;SDS011;5655;48.744;9.162;2023-02-03T08:29:44;6.27;;;3.17;;
11197;SDS011;5655;48.744;9.162;2023-02-03T08:32:12;5.40;;;2.97;;
11197;SDS011;5655;48.744;9.162;2023-02-03T08:34:39;6.07;;;2.93;;
11197;SDS011;5655;48.744;9.162;2023-02-03T08:37:05;6.07;;;3.50;;
11197;SDS011;5655;48.744;9.162;2023-02-03T08:39:31;5.83;;;3.43;;
11197;SDS011;5655;48.744;9.162;2023-02-03T08:41:57;3.53;;;2.43;;
11197;SDS011;5655;48.744;9.162;2023-02-03T08:44:23;4.77;;;2.97;;
11197;SDS011;5655;48.744;9.162;2023-02-03T08:46:51;4.47;;;3.10;;
11197;SDS011;5655;48.744;9.162;2023-02-03T08:49:18;5.20;;;2.90;;
11197;SDS011;5655;48.744;9.162;2023-02-03T08:51:47;6.43;;;2.83;;
11197;SDS011;5655;48.744;9.162;2023-02-03T08:54:13;10.00;;;2.80;;
11197;SDS011;5655;48.744;9.162;2023-02-03T08:56:39;8.13;;;3.03;;
11197;SDS011;5655;48.744;9.162;2023-02-03T08:59:05;8.50;;;2.97;;
11197;SDS011;5655;48.744;9.162;2023-02-03T09:01:31;4.73;;;2.80;;
11197;SDS011;5655;48.744;9.162;2023-02-03T09:03:57;5.37;;;3.20;;
11197;SDS011;5655;48.744;9.162;2023-02-03T09:06:25;7.77;;;2.97;;
11197;SDS011;5655;48.744;9.162;2023-02-03T09:08:50;4.10;;;2.73;;
11197;SDS011;5655;48.744;9.162;2023-02-03T09:11:16;6.77;;;3.20;;
11197;SDS011;5655;48.744;9.162;2023-02-03T09:13:42;7.57;;;3.00;;
11197;SDS011;5655;48.744;9.162;2023-02-03T09:16:09;5.90;;;2.83;;
11197;SDS011;5655;48.744;9.162;2023-02-03T09:18:36;8.13;;;3.40;;
11197;SDS011;5655;48.744;9.162;2023-02-03T09:21:05;4.07;;;2.37;;
11197;SDS011;5655;48.744;9.162;2023-02-03T09:23:32;6.67;;;2.53;;
11197;SDS011;5655;48.744;9.162;2023-02-03T09:26:01;3.70;;;2.37;;
11197;SDS011;5655;48.744;9.162;2023-02-03T09:28:30;5.23;;;2.73;;
11197;SDS011;5655;48.744;9.162;2023-02-03T09:30:59;6.90;;;2.90;;
11197;SDS011;5655;48.744;9.162;2023-02-03T09:33:25;3.80;;;2.20;;
11197;SDS011;5655;48.744;9.162;2023-02-03T09:35:51;4.67;;;2.40;;
11197;SDS011;5655;48.744;9.162;2023-02-03T09:38:17;5.63;;;2.70;;
11197;SDS011;5655;48.744;9.162;2023-02-03T09:40:43;5.00;;;2.47;;
11197;SDS011;5655;48.744;9.162;2023-02-03T09:43:23;2.60;;;1.80;;
11197;SDS011;5655;48.744;9.162;2023-02-03T09:46:04;4.80;;;2.33;;
11197;SDS011;5655;48.744;9.162;2023-02-03T09:48:49;2.53;;;1.90;;
11197;SDS011;5655;48.744;9.162;2023-02-03T09:53:57;3.33;;;1.40;;
11197;SDS011;5655;48.744;9.162;2023-02-03T09:56:30;4.03;;;2.00;;
11197;SDS011;5655;48.744;9.162;2023-02-03T09:58:58;2.70;;;1.63;;
11197;SDS011;5655;48.744;9.162;2023-02-03T10:01:27;5.30;;;1.60;;
11197;SDS011;5655;48.744;9.162;2023-02-03T10:04:31;2.20;;;1.73;;
11197;SDS011;5655;48.744;9.162;2023-02-03T10:07:06;3.80;;;1.70;;
11197;SDS011;5655;48.744;9.162;2023-02-03T10:09:48;3.73;;;1.50;;
11197;SDS011;5655;48.744;9.162;2023-02-03T10:12:45;1.53;;;1.43;;
11197;SDS011;5655;48.744;9.162;2023-02-03T10:17:59;1.77;;;1.20;;
11197;SDS011;5655;48.744;9.162;2023-02-03T10:20:42;1.80;;;1.43;;
11197;SDS011;5655;48.744;9.162;2023-02-03T10:23:16;1.63;;;1.17;;
11197;SDS011;5655;48.744;9.162;2023-02-03T10:25:51;1.30;;;1.20;;
11197;SDS011;5655;48.744;9.162;2023-02-03T10:28:25;1.60;;;1.25;;
11197;SDS011;5655;48.744;9.162;2023-02-03T10:30:55;1.90;;;1.30;;
11197;SDS011;5655;48.744;9.162;2023-02-03T10:33:25;1.55;;;1.17;;
11197;SDS011;5655;48.744;9.162;2023-02-03T10:35:54;1.93;;;1.40;;
11197;SDS011;5655;48.744;9.162;2023-02-03T10:41:12;1.77;;;1.15;;
11197;SDS011;5655;48.744;9.162;2023-02-03T10:43:39;2.40;;;1.30;;
11197;SDS011;5655;48.744;9.162;2023-02-03T10:48:53;1.30;;;1.20;;
11197;SDS011;5655;48.744;9.162;2023-02-03T10:51:26;3.83;;;1.20;;
11197;SDS011;5655;48.744;9.162;2023-02-03T10:53:56;1.33;;;1.10;;
11197;SDS011;5655;48.744;9.162;2023-02-03T10:56:22;5.37;;;1.30;;
11197;SDS011;5655;48.744;9.162;2023-02-03T10:59:02;1.60;;;1.30;;
11197;SDS011;5655;48.744;9.162;2023-02-03T11:01:44;1.50;;;1.10;;
11197;SDS011;5655;48.744;9.162;2023-02-03T11:04:23;1.40;;;1.20;;
11197;SDS011;5655;48.744;9.162;2023-02-03T11:06:55;2.75;;;1.30;;
11197;SDS011;5655;48.744;9.162;2023-02-03T11:09:32;1.77;;;1.10;;
11197;SDS011;5655;48.744;9.162;2023-02-03T11:12:05;1.70;;;0.90;;
11197;SDS011;5655;48.744;9.162;2023-02-03T11:14:50;1.92;;;1.05;;
11197;SDS011;5655;48.744;9.162;2023-02-03T11:17:18;3.67;;;1.20;;
11197;SDS011;5655;48.744;9.162;2023-02-03T11:19:52;5.78;;;1.35;;
11197;SDS011;5655;48.744;9.162;2023-02-03T11:22:29;1.20;;;0.88;;
11197;SDS011;5655;48.744;9.162;2023-02-03T11:24:59;1.13;;;1.02;;
11197;SDS011;5655;48.744;9.162;2023-02-03T11:27:28;0.75;;;0.73;;
11197;SDS011;5655;48.744;9.162;2023-02-03T11:32:44;1.83;;;0.75;;
11197;SDS011;5655;48.744;9.162;2023-02-03T11:37:46;1.80;;;0.68;;
11197;SDS011;5655;48.744;9.162;2023-02-03T11:42:41;1.48;;;1.17;;
11197;SDS011;5655;48.744;9.162;2023-02-03T11:53:22;0.75;;;0.60;;
11197;SDS011;5655;48.744;9.162;2023-02-03T11:58:33;0.75;;;0.57;;
11197;SDS011;5655;48.744;9.162;2023-02-03T12:01:16;1.20;;;0.85;;
11197;SDS011;5655;48.744;9.162;2023-02-03T12:12:21;0.95;;;0.70;;
11197;SDS011;5655;48.744;9.162;2023-02-03T12:26:53;0.98;;;0.68;;
11197;SDS011;5655;48.744;9.162;2023-02-03T12:29:43;3.20;;;0.80;;
11197;SDS011;5655;48.744;9.162;2023-02-03T12:34:54;1.35;;;0.73;;
11197;SDS011;5655;48.744;9.162;2023-02-03T12:40:27;1.67;;;0.70;;
11197;SDS011;5655;48.744;9.162;2023-02-03T12:43:09;0.75;;;0.52;;
11197;SDS011;5655;48.744;9.162;2023-02-03T12:45:46;1.15;;;0.55;;
11197;SDS011;5655;48.744;9.162;2023-02-03T12:48:18;0.55;;;0.45;;
11197;SDS011;5655;48.744;9.162;2023-02-03T12:50:52;2.40;;;0.55;;
11197;SDS011;5655;48.744;9.162;2023-02-03T12:53:28;1.02;;;0.90;;
11197;SDS011;5655;48.744;9.162;2023-02-03T12:55:58;0.70;;;0.70;;
11197;SDS011;5655;48.744;9.162;2023-02-03T12:58:33;0.63;;;0.50;;
11197;SDS011;5655;48.744;9.162;2023-02-03T13:01:11;0.70;;;0.30;;
11197;SDS011;5655;48.744;9.162;2023-02-03T13:11:59;1.55;;;0.70;;
11197;SDS011;5655;48.744;9.162;2023-02-03T13:14:45;0.60;;;0.40;;
11197;SDS011;5655;48.744;9.162;2023-02-03T13:17:42;0.60;;;0.60;;
11197;SDS011;5655;48.744;9.162;2023-02-03T13:20:19;0.95;;;0.50;;
11197;SDS011;5655;48.744;9.162;2023-02-03T13:22:48;1.17;;;0.43;;
11197;SDS011;5655;48.744;9.162;2023-02-03T13:25:30;0.60;;;0.60;;
11197;SDS011;5655;48.744;9.162;2023-02-03T13:28:11;0.50;;;0.50;;
11197;SDS011;5655;48.744;9.162;2023-02-03T13:42:22;1.02;;;0.50;;
11197;SDS011;5655;48.744;9.162;2023-02-03T13:45:13;0.52;;;0.50;;
11197;SDS011;5655;48.744;9.162;2023-02-03T13:47:46;0.45;;;0.43;;
11197;SDS011;5655;48.744;9.162;2023-02-03T13:50:18;0.45;;;0.40;;
11197;SDS011;5655;48.744;9.162;2023-02-03T13:52:58;0.77;;;0.50;;
11197;SDS011;5655;48.744;9.162;2023-02-03T13:57:57;1.23;;;0.60;;
11197;SDS011;5655;48.744;9.162;2023-02-03T14:03:14;1.33;;;0.75;;
11197;SDS011;5655;48.744;9.162;2023-02-03T14:05:44;0.47;;;0.47;;
11197;SDS011;5655;48.744;9.162;2023-02-03T14:19:53;1.45;;;0.40;;
11197;SDS011;5655;48.744;9.162;2023-02-03T14:21:56;1.23;;;0.50;;
11197;SDS011;5655;48.744;9.162;2023-02-03T14:24:31;0.50;;;0.50;;
11197;SDS011;5655;48.744;9.162;2023-02-03T14:27:17;0.60;;;0.50;;
11197;SDS011;5655;48.744;9.162;2023-02-03T14:30:13;0.43;;;0.43;;
11197;SDS011;5655;48.744;9.162;2023-02-03T14:32:51;1.55;;;0.57;;
11197;SDS011;5655;48.744;9.162;2023-02-03T14:35:20;0.90;;;0.47;;
11197;SDS011;5655;48.744;9.162;2023-02-03T14:38:04;1.27;;;0.50;;
11197;SDS011;5655;48.744;9.162;2023-02-03T14:43:37;0.55;;;0.50;;
11197;SDS011;5655;48.744;9.162;2023-02-03T14:49:12;0.40;;;0.40;;
11197;SDS011;5655;48.744;9.162;2023-02-03T14:52:10;0.40;;;0.40;;
11197;SDS011;5655;48.744;9.162;2023-02-03T15:00:06;0.47;;;0.38;;
11197;SDS011;5655;48.744;9.162;2023-02-03T15:05:38;0.70;;;0.70;;
11197;SDS011;5655;48.744;9.162;2023-02-03T15:13:54;0.43;;;0.40;;
11197;SDS011;5655;48.744;9.162;2023-02-03T15:16:21;0.50;;;0.50;;
11197;SDS011;5655;48.744;9.162;2023-02-03T15:18:55;0.83;;;0.50;;
11197;SDS011;5655;48.744;9.162;2023-02-03T15:21:22;5.90;;;0.80;;
11197;SDS011;5655;48.744;9.162;2023-02-03T15:23:48;1.90;;;0.57;;
11197;SDS011;5655;48.744;9.162;2023-02-03T15:26:24;1.52;;;0.55;;
11197;SDS011;5655;48.744;9.162;2023-02-03T15:31:24;1.63;;;0.63;;
11197;SDS011;5655;48.744;9.162;2023-02-03T15:33:56;1.10;;;0.60;;
11197;SDS011;5655;48.744;9.162;2023-02-03T15:36:25;0.60;;;0.60;;
11197;SDS011;5655;48.744;9.162;2023-02-03T15:41:50;0.60;;;0.60;;
11197;SDS011;5655;48.744;9.162;2023-02-03T15:44:29;1.98;;;0.68;;
11197;SDS011;5655;48.744;9.162;2023-02-03T15:46:58;3.40;;;0.60;;
11197;SDS011;5655;48.744;9.162;2023-02-03T15:49:27;1.27;;;0.63;;
11197;SDS011;5655;48.744;9.162;2023-02-03T15:52:00;0.80;;;0.80;;
11197;SDS011;5655;48.744;9.162;2023-02-03T15:54:36;0.53;;;0.53;;
11197;SDS011;5655;48.744;9.162;2023-02-03T15:57:10;1.27;;;0.80;;
11197;SDS011;5655;48.744;9.162;2023-02-03T15:59:45;0.70;;;0.70;;
11197;SDS011;5655;48.744;9.162;2023-02-03T16:02:16;0.77;;;0.50;;
11197;SDS011;5655;48.744;9.162;2023-02-03T16:04:45;1.47;;;0.90;;
11197;SDS011;5655;48.744;9.162;2023-02-03T16:07:20;1.23;;;0.80;;
11197;SDS011;5655;48.744;9.162;2023-02-03T16:09:52;0.52;;;0.52;;
11197;SDS011;5655;48.744;9.162;2023-02-03T16:12:25;1.27;;;0.90;;
11197;SDS011;5655;48.744;9.162;2023-02-03T16:14:55;1.15;;;0.73;;
11197;SDS011;5655;48.744;9.162;2023-02-03T16:17:26;3.30;;;0.80;;
11197;SDS011;5655;48.744;9.162;2023-02-03T16:22:35;2.53;;;1.30;;
11197;SDS011;5655;48.744;9.162;2023-02-03T16:25:22;0.80;;;0.68;;
11197;SDS011;5655;48.744;9.162;2023-02-03T16:27:56;1.33;;;1.20;;
11197;SDS011;5655;48.744;9.162;2023-02-03T16:30:50;1.67;;;1.20;;
11197;SDS011;5655;48.744;9.162;2023-02-03T16:33:42;0.73;;;0.73;;
11197;SDS011;5655;48.744;9.162;2023-02-03T16:36:27;1.30;;;1.07;;
11197;SDS011;5655;48.744;9.162;2023-02-03T16:39:11;1.13;;;1.02;;
11197;SDS011;5655;48.744;9.162;2023-02-03T16:41:59;1.25;;;0.90;;
11197;SDS011;5655;48.744;9.162;2023-02-03T16:44:51;1.23;;;0.90;;
11197;SDS011;5655;48.744;9.162;2023-02-03T16:47:36;1.07;;;0.70;;
11197;SDS011;5655;48.744;9.162;2023-02-03T16:50:22;0.87;;;0.73;;
11197;SDS011;5655;48.744;9.162;2023-02-03T16:53:11;1.10;;;0.80;;
11197;SDS011;5655;48.744;9.162;2023-02-03T16:55:41;1.30;;;0.80;;
11197;SDS011;5655;48.744;9.162;2023-02-03T16:58:07;0.83;;;0.70;;
11197;SDS011;5655;48.744;9.162;2023-02-03T17:00:35;0.97;;;0.70;;
11197;SDS011;5655;48.744;9.162;2023-02-03T17:03:03;1.05;;;0.88;;
11197;SDS011;5655;48.744;9.162;2023-02-03T17:05:29;1.58;;;1.10;;
11197;SDS011;5655;48.744;9.162;2023-02-03T17:07:54;3.63;;;1.10;;
11197;SDS011;5655;48.744;9.162;2023-02-03T17:10:20;1.30;;;0.90;;
11197;SDS011;5655;48.744;9.162;2023-02-03T17:12:45;1.00;;;0.90;;
11197;SDS011;5655;48.744;9.162;2023-02-03T17:15:10;2.83;;;0.80;;
11197;SDS011;5655;48.744;9.162;2023-02-03T17:17:36;0.83;;;0.80;;
11197;SDS011;5655;48.744;9.162;2023-02-03T17:20:01;1.13;;;0.73;;
11197;SDS011;5655;48.744;9.162;2023-02-03T17:22:26;0.93;;;0.80;;
11197;SDS011;5655;48.744;9.162;2023-02-03T17:24:52;1.27;;;0.95;;
11197;SDS011;5655;48.744;9.162;2023-02-03T17:27:18;2.70;;;1.73;;
11197;SDS011;5655;48.744;9.162;2023-02-03T17:29:43;1.00;;;0.73;;
11197;SDS011;5655;48.744;9.162;2023-02-03T17:32:09;0.70;;;0.52;;
11197;SDS011;5655;48.744;9.162;2023-02-03T17:34:39;1.53;;;0.90;;
11197;SDS011;5655;48.744;9.162;2023-02-03T17:37:04;0.88;;;0.65;;
11197;SDS011;5655;48.744;9.162;2023-02-03T17:39:30;0.60;;;0.55;;